Time;durP1;ratioP1;P1;durP2;ratioP2;P2;SDS_P1;SDS_P2;PMS_P1;PMS_P2;Temp;Humidity;BMP_temperature;BMP_pressure;BME280_temperature;BME280_humidity;BME280_pressure;Samples;Min_cycle;Max_cycle;Signal;HPM_P1;HPM_P2
2021/07/14 00:00:19;;;;;;;8.35;5.57;;;;;;;;;;4997943;28;20085;-79
2021/07/14 00:02:45;;;;;;;8.25;5.45;;;;;;;;;;4992943;28;20566;-80
2021/07/14 00:05:13;;;;;;;14.85;6.13;;;;;;;;;;4992612;28;20035;-79
2021/07/14 00:07:39;;;;;;;11.35;5.50;;;;;;;;;;4998862;28;20038;-79
2021/07/14 00:10:09;;;;;;;7.60;5.05;;;;;;;;;;5006129;28;20019;-78
2021/07/14 00:12:43;;;;;;;8.13;4.63;;;;;;;;;;4981815;28;20026;-78
2021/07/14 00:22:07;;;;;;;15.40;5.30;;;;;;;;;;4965832;28;20492;-79
2021/07/14 00:23:35;;;;;;;21.27;5.45;;;;;;;;;;4997237;28;20637;-80
2021/07/14 00:26:01;;;;;;;5.78;4.15;;;;;;;;;;4991866;28;20055;-79
2021/07/14 00:28:27;;;;;;;28.35;5.75;;;;;;;;;;4978592;28;20070;-78
2021/07/14 00:30:59;;;;;;;8.88;4.25;;;;;;;;;;4994180;28;20022;-78
2021/07/14 00:33:27;;;;;;;10.23;5.20;;;;;;;;;;4998215;28;20483;-79
2021/07/14 00:35:53;;;;;;;7.95;5.60;;;;;;;;;;4997897;28;20053;-80
2021/07/14 00:38:19;;;;;;;11.45;4.85;;;;;;;;;;4997997;28;20034;-79
2021/07/14 00:40:45;;;;;;;10.95;5.30;;;;;;;;;;4996910;28;20077;-80
2021/07/14 00:43:11;;;;;;;11.88;5.38;;;;;;;;;;4996536;28;20034;-79
2021/07/14 00:45:37;;;;;;;10.75;5.53;;;;;;;;;;4975964;28;20030;-79
2021/07/14 00:48:03;;;;;;;7.07;4.75;;;;;;;;;;4976587;28;20030;-79
2021/07/14 00:50:30;;;;;;;9.02;4.80;;;;;;;;;;4992943;28;20022;-78
2021/07/14 00:52:56;;;;;;;7.05;5.00;;;;;;;;;;4977074;28;20037;-78
2021/07/14 00:55:22;;;;;;;12.55;4.53;;;;;;;;;;4993899;28;20085;-78
2021/07/14 00:57:48;;;;;;;14.80;5.30;;;;;;;;;;4993276;28;20093;-80
2021/07/14 01:00:14;;;;;;;6.03;4.55;;;;;;;;;;4976626;28;20045;-79
2021/07/14 01:02:40;;;;;;;7.10;4.93;;;;;;;;;;4992063;28;20026;-79
2021/07/14 01:05:10;;;;;;;10.18;5.10;;;;;;;;;;4993189;28;20065;-79
2021/07/14 01:07:39;;;;;;;14.38;5.18;;;;;;;;;;4994541;28;20057;-79
2021/07/14 01:10:17;;;;;;;8.82;5.28;;;;;;;;;;4993609;28;20041;-79
2021/07/14 01:12:55;;;;;;;6.20;5.22;;;;;;;;;;4997064;28;20022;-77
2021/07/14 01:15:22;;;;;;;22.58;5.55;;;;;;;;;;4986515;28;20044;-78
2021/07/14 01:17:53;;;;;;;5.63;4.57;;;;;;;;;;4986295;28;20049;-78
2021/07/14 01:20:38;;;;;;;12.20;5.47;;;;;;;;;;4982229;28;20446;-79
2021/07/14 01:23:24;;;;;;;12.60;5.88;;;;;;;;;;4992873;28;20034;-79
2021/07/14 01:25:53;;;;;;;14.27;5.45;;;;;;;;;;4981887;28;20038;-79
2021/07/14 01:28:25;;;;;;;19.58;5.93;;;;;;;;;;4993058;28;20022;-78
2021/07/14 01:30:51;;;;;;;6.82;5.10;;;;;;;;;;4966966;28;20027;-78
2021/07/14 01:33:19;;;;;;;10.90;5.30;;;;;;;;;;4975302;28;20703;-79
2021/07/14 01:35:47;;;;;;;6.15;4.68;;;;;;;;;;4975368;28;20088;-78
2021/07/14 01:38:14;;;;;;;10.13;4.93;;;;;;;;;;4992042;28;20038;-79
2021/07/14 01:40:41;;;;;;;10.15;5.05;;;;;;;;;;4993912;28;20035;-80
2021/07/14 01:43:07;;;;;;;13.80;5.28;;;;;;;;;;4976528;28;20058;-79
2021/07/14 01:45:36;;;;;;;10.98;5.72;;;;;;;;;;4977107;28;20035;-79
2021/07/14 01:48:03;;;;;;;9.52;5.35;;;;;;;;;;4977160;28;20023;-79
2021/07/14 01:50:30;;;;;;;12.95;6.07;;;;;;;;;;4973498;28;20034;-79
2021/07/14 01:52:56;;;;;;;10.68;5.88;;;;;;;;;;4996546;28;20038;-80
2021/07/14 01:55:23;;;;;;;12.00;6.18;;;;;;;;;;4998026;28;20062;-79
2021/07/14 01:57:50;;;;;;;7.68;6.45;;;;;;;;;;4963261;28;20030;-79
2021/07/14 02:00:17;;;;;;;14.02;7.22;;;;;;;;;;5006365;28;20076;-79
2021/07/14 02:03:40;;;;;;;10.85;6.43;;;;;;;;;;5015729;28;20037;-79
2021/07/14 02:05:31;;;;;;;9.40;6.55;;;;;;;;;;4988751;28;20041;-79
2021/07/14 02:08:00;;;;;;;8.10;6.40;;;;;;;;;;4979021;28;20054;-79
2021/07/14 02:10:28;;;;;;;8.07;6.70;;;;;;;;;;4977729;28;20082;-79
2021/07/14 02:12:54;;;;;;;9.10;7.18;;;;;;;;;;4995459;28;20060;-79
2021/07/14 02:15:22;;;;;;;13.65;7.10;;;;;;;;;;4979676;28;20011;-79
2021/07/14 02:17:50;;;;;;;12.35;7.78;;;;;;;;;;4994601;28;20050;-79
2021/07/14 02:20:18;;;;;;;11.70;8.10;;;;;;;;;;5000654;28;20030;-78
2021/07/14 02:22:44;;;;;;;10.10;7.70;;;;;;;;;;5000601;28;20026;-79
2021/07/14 02:25:10;;;;;;;21.33;8.93;;;;;;;;;;5000270;28;20065;-78
2021/07/14 02:27:36;;;;;;;13.35;7.47;;;;;;;;;;4978892;28;20035;-78
2021/07/14 02:30:05;;;;;;;12.27;7.63;;;;;;;;;;4987458;28;20387;-78
2021/07/14 02:32:31;;;;;;;10.05;6.57;;;;;;;;;;4994685;28;20033;-79
2021/07/14 02:34:58;;;;;;;9.88;6.85;;;;;;;;;;4977807;28;20030;-80
2021/07/14 02:37:41;;;;;;;9.68;6.05;;;;;;;;;;4966961;28;20027;-80
2021/07/14 02:40:08;;;;;;;8.35;6.30;;;;;;;;;;4985934;28;20125;-79
2021/07/14 02:42:36;;;;;;;16.63;6.05;;;;;;;;;;4996716;28;20026;-80
2021/07/14 02:45:03;;;;;;;10.75;5.40;;;;;;;;;;4989334;28;20035;-79
2021/07/14 02:47:36;;;;;;;6.70;5.07;;;;;;;;;;4978431;28;20084;-79
2021/07/14 02:50:03;;;;;;;11.40;5.80;;;;;;;;;;4994112;28;20029;-80
2021/07/14 02:52:29;;;;;;;12.85;6.18;;;;;;;;;;4979194;28;20106;-80
2021/07/14 02:54:57;;;;;;;15.00;6.25;;;;;;;;;;4981115;28;20026;-78
2021/07/14 02:57:25;;;;;;;8.82;5.35;;;;;;;;;;4959844;28;20106;-79
2021/07/14 02:59:54;;;;;;;11.55;4.95;;;;;;;;;;4958447;28;20045;-79
2021/07/14 03:02:20;;;;;;;6.18;5.00;;;;;;;;;;4975163;28;20029;-79
2021/07/14 03:04:48;;;;;;;11.93;5.57;;;;;;;;;;4988775;28;20364;-79
2021/07/14 03:07:18;;;;;;;13.75;6.43;;;;;;;;;;4995017;28;20117;-79
2021/07/14 03:09:44;;;;;;;16.95;5.95;;;;;;;;;;4994269;28;20018;-79
2021/07/14 03:12:11;;;;;;;9.93;5.57;;;;;;;;;;4972899;28;20041;-78
2021/07/14 03:14:38;;;;;;;10.40;6.20;;;;;;;;;;4989032;28;20368;-79
2021/07/14 03:17:05;;;;;;;11.93;6.50;;;;;;;;;;4995550;28;20089;-78
2021/07/14 03:19:32;;;;;;;15.30;6.60;;;;;;;;;;4994461;28;20030;-79
2021/07/14 03:21:58;;;;;;;9.85;6.15;;;;;;;;;;4987464;28;20026;-79
2021/07/14 03:24:25;;;;;;;7.40;5.65;;;;;;;;;;4977153;28;20038;-78
2021/07/14 03:26:51;;;;;;;10.45;5.57;;;;;;;;;;4976148;28;20031;-79
2021/07/14 03:29:18;;;;;;;9.68;5.53;;;;;;;;;;4977779;28;20018;-79
2021/07/14 03:31:45;;;;;;;13.98;5.30;;;;;;;;;;4998946;28;20077;-79
2021/07/14 03:34:11;;;;;;;7.70;5.22;;;;;;;;;;4990110;28;20022;-78
2021/07/14 03:36:37;;;;;;;6.13;4.90;;;;;;;;;;4975703;28;20054;-79
2021/07/14 03:39:04;;;;;;;11.50;5.85;;;;;;;;;;4976056;28;20037;-78
2021/07/14 03:41:30;;;;;;;7.85;5.22;;;;;;;;;;4994071;28;20109;-79
2021/07/14 03:43:57;;;;;;;9.98;5.63;;;;;;;;;;4976768;28;20023;-79
2021/07/14 03:46:24;;;;;;;10.82;5.45;;;;;;;;;;4960380;28;20508;-79
2021/07/14 03:48:51;;;;;;;26.63;6.93;;;;;;;;;;4977094;28;20030;-79
2021/07/14 03:51:17;;;;;;;9.52;6.53;;;;;;;;;;4995393;28;20018;-79
2021/07/14 03:53:44;;;;;;;15.27;7.00;;;;;;;;;;4982288;28;20029;-79
2021/07/14 03:56:10;;;;;;;13.23;6.68;;;;;;;;;;4960349;28;20039;-79
2021/07/14 03:58:38;;;;;;;9.82;6.47;;;;;;;;;;4988347;28;20105;-78
2021/07/14 04:01:04;;;;;;;8.77;6.93;;;;;;;;;;4974491;28;20090;-79
2021/07/14 04:03:31;;;;;;;14.65;7.28;;;;;;;;;;4976274;28;20518;-79
2021/07/14 04:06:05;;;;;;;12.60;7.90;;;;;;;;;;4994350;28;20050;-79
2021/07/14 04:08:33;;;;;;;12.75;7.13;;;;;;;;;;4995178;28;20391;-80
2021/07/14 04:10:59;;;;;;;10.02;6.80;;;;;;;;;;4994096;28;20022;-79
2021/07/14 04:13:25;;;;;;;10.05;6.55;;;;;;;;;;4977167;28;20494;-79
2021/07/14 04:15:51;;;;;;;11.73;6.43;;;;;;;;;;4977473;28;20030;-79
2021/07/14 04:18:17;;;;;;;11.63;6.32;;;;;;;;;;4961357;28;20030;-79
2021/07/14 04:20:43;;;;;;;9.00;6.75;;;;;;;;;;4994093;28;20476;-80
2021/07/14 04:23:09;;;;;;;9.10;5.85;;;;;;;;;;4973193;28;20046;-80
2021/07/14 04:25:36;;;;;;;6.88;5.55;;;;;;;;;;4976961;28;20073;-80
2021/07/14 04:28:02;;;;;;;8.85;5.75;;;;;;;;;;4994998;28;20581;-79
2021/07/14 04:30:28;;;;;;;7.88;6.10;;;;;;;;;;4976388;28;20033;-80
2021/07/14 04:32:54;;;;;;;13.45;5.65;;;;;;;;;;4977141;28;20035;-79
2021/07/14 04:35:20;;;;;;;9.32;6.15;;;;;;;;;;4973799;28;20039;-80
2021/07/14 04:37:49;;;;;;;11.82;5.93;;;;;;;;;;4960571;28;20035;-79
2021/07/14 04:40:15;;;;;;;12.07;5.90;;;;;;;;;;4991099;28;20026;-79
2021/07/14 04:42:41;;;;;;;8.68;5.10;;;;;;;;;;4997938;28;20018;-79
2021/07/14 04:45:07;;;;;;;9.13;5.70;;;;;;;;;;4996147;28;20070;-79
2021/07/14 04:47:33;;;;;;;7.50;5.57;;;;;;;;;;4998245;28;20038;-80
2021/07/14 04:49:59;;;;;;;9.55;4.78;;;;;;;;;;4981520;28;20027;-79
2021/07/14 04:52:25;;;;;;;7.28;5.00;;;;;;;;;;4979745;28;20525;-79
2021/07/14 04:54:51;;;;;;;9.90;5.68;;;;;;;;;;4998117;28;20042;-78
2021/07/14 04:57:18;;;;;;;11.85;5.47;;;;;;;;;;4997586;28;20034;-78
2021/07/14 04:59:43;;;;;;;6.50;4.63;;;;;;;;;;4998118;28;20096;-79
2021/07/14 05:02:09;;;;;;;9.50;5.32;;;;;;;;;;4980877;28;20034;-78
2021/07/14 05:04:36;;;;;;;12.88;5.72;;;;;;;;;;5006815;23;20353;-78
2021/07/14 05:07:02;;;;;;;9.48;4.97;;;;;;;;;;4980197;28;20045;-79
2021/07/14 05:09:28;;;;;;;7.15;5.38;;;;;;;;;;4992469;28;20050;-79
2021/07/14 05:11:54;;;;;;;19.70;5.53;;;;;;;;;;4992438;28;20033;-79
2021/07/14 05:14:20;;;;;;;9.80;4.93;;;;;;;;;;4996782;28;20497;-79
2021/07/14 05:16:46;;;;;;;9.98;5.22;;;;;;;;;;4977543;28;20035;-78
2021/07/14 05:19:14;;;;;;;8.60;5.13;;;;;;;;;;4975967;28;20105;-78
2021/07/14 05:21:40;;;;;;;8.20;4.25;;;;;;;;;;4977196;28;20522;-78
2021/07/14 05:24:06;;;;;;;7.25;4.20;;;;;;;;;;4959948;28;20499;-78
2021/07/14 05:26:32;;;;;;;8.32;4.65;;;;;;;;;;4977740;28;20038;-78
2021/07/14 05:28:58;;;;;;;9.32;4.68;;;;;;;;;;4977863;28;20031;-78
2021/07/14 05:31:24;;;;;;;10.20;5.13;;;;;;;;;;4986107;28;20403;-78
2021/07/14 05:33:50;;;;;;;8.35;4.60;;;;;;;;;;4994763;28;20034;-77
2021/07/14 05:36:17;;;;;;;9.15;4.85;;;;;;;;;;4978090;28;20037;-77
2021/07/14 05:38:43;;;;;;;12.32;4.65;;;;;;;;;;4994924;28;20054;-79
2021/07/14 05:41:09;;;;;;;8.60;4.60;;;;;;;;;;4973148;28;20557;-78
2021/07/14 05:43:36;;;;;;;5.07;4.18;;;;;;;;;;4956451;29;20031;-78
2021/07/14 05:46:02;;;;;;;9.75;4.50;;;;;;;;;;4958448;28;20110;-78
2021/07/14 05:48:28;;;;;;;8.38;3.97;;;;;;;;;;4987935;28;20482;-76
2021/07/14 05:50:55;;;;;;;9.27;4.07;;;;;;;;;;4994261;28;20034;-77
2021/07/14 05:53:21;;;;;;;7.60;4.50;;;;;;;;;;5004578;28;20034;-79
2021/07/14 05:55:47;;;;;;;5.28;3.92;;;;;;;;;;5002570;28;20030;-79
2021/07/14 05:58:15;;;;;;;8.18;3.95;;;;;;;;;;4981177;28;20396;-77
2021/07/14 06:00:41;;;;;;;9.05;3.83;;;;;;;;;;4974874;28;20039;-77
2021/07/14 06:03:07;;;;;;;10.27;3.70;;;;;;;;;;4975184;28;20043;-77
2021/07/14 06:05:34;;;;;;;9.50;3.53;;;;;;;;;;4977388;28;20035;-79
2021/07/14 06:08:00;;;;;;;9.85;4.00;;;;;;;;;;4977259;28;20165;-79
2021/07/14 06:10:26;;;;;;;4.82;3.65;;;;;;;;;;4975332;28;20081;-77
2021/07/14 06:12:56;;;;;;;7.68;3.45;;;;;;;;;;4958887;28;20027;-80
2021/07/14 06:15:23;;;;;;;6.28;3.13;;;;;;;;;;4969897;28;20015;-78
2021/07/14 06:17:49;;;;;;;5.05;3.22;;;;;;;;;;4983049;28;20031;-78
2021/07/14 06:20:15;;;;;;;6.95;2.95;;;;;;;;;;4974256;28;20031;-78
2021/07/14 06:22:41;;;;;;;6.15;3.30;;;;;;;;;;4987791;28;20081;-78
2021/07/14 06:25:09;;;;;;;5.95;3.33;;;;;;;;;;4995283;28;20038;-78
2021/07/14 06:27:35;;;;;;;5.95;3.42;;;;;;;;;;4986552;28;20499;-78
2021/07/14 06:30:05;;;;;;;5.13;2.88;;;;;;;;;;4974102;28;20027;-78
2021/07/14 06:32:31;;;;;;;9.20;2.72;;;;;;;;;;4975333;28;20110;-78
2021/07/14 06:34:57;;;;;;;4.95;2.70;;;;;;;;;;4975155;28;20027;-78
2021/07/14 06:37:23;;;;;;;8.50;2.70;;;;;;;;;;4980772;28;20042;-77
2021/07/14 06:39:49;;;;;;;5.85;2.63;;;;;;;;;;4986310;28;20031;-78
2021/07/14 06:42:16;;;;;;;6.50;2.60;;;;;;;;;;4975166;28;20037;-77
2021/07/14 06:44:42;;;;;;;5.88;2.60;;;;;;;;;;4971441;28;20031;-78
2021/07/14 06:47:08;;;;;;;5.95;2.65;;;;;;;;;;4979558;28;20796;-77
2021/07/14 06:49:34;;;;;;;5.80;2.75;;;;;;;;;;4977465;28;20087;-77
2021/07/14 06:52:00;;;;;;;5.55;2.80;;;;;;;;;;4974431;28;20014;-78
2021/07/14 06:54:26;;;;;;;6.30;2.47;;;;;;;;;;4975605;28;20055;-78
2021/07/14 06:56:52;;;;;;;5.78;2.70;;;;;;;;;;4979518;28;20066;-76
2021/07/14 06:59:18;;;;;;;3.63;2.38;;;;;;;;;;4975965;28;20035;-76
2021/07/14 07:01:44;;;;;;;4.53;2.72;;;;;;;;;;4975218;28;20054;-77
2021/07/14 07:04:10;;;;;;;8.52;2.83;;;;;;;;;;4979578;28;20105;-77
2021/07/14 07:06:36;;;;;;;4.88;2.60;;;;;;;;;;4978184;28;20054;-76
2021/07/14 07:09:04;;;;;;;7.38;2.72;;;;;;;;;;4967385;28;20177;-78
2021/07/14 07:11:34;;;;;;;3.25;2.47;;;;;;;;;;4967214;28;20026;-78
2021/07/14 07:14:00;;;;;;;7.05;2.78;;;;;;;;;;4980037;28;20094;-77
2021/07/14 07:16:26;;;;;;;4.28;2.60;;;;;;;;;;4992377;28;20483;-79
2021/07/14 07:18:52;;;;;;;4.18;2.85;;;;;;;;;;4991639;28;20039;-76
2021/07/14 07:21:18;;;;;;;6.68;2.72;;;;;;;;;;4990257;28;20035;-76
2021/07/14 07:23:45;;;;;;;7.18;2.92;;;;;;;;;;4985686;28;20030;-76
2021/07/14 07:26:12;;;;;;;5.57;2.90;;;;;;;;;;4992059;28;20702;-76
2021/07/14 07:28:41;;;;;;;6.85;2.95;;;;;;;;;;4992236;28;20037;-76
2021/07/14 07:31:09;;;;;;;5.70;3.13;;;;;;;;;;4990089;28;20019;-75
2021/07/14 07:33:35;;;;;;;3.63;2.75;;;;;;;;;;4978739;28;20114;-77
2021/07/14 07:36:01;;;;;;;5.82;2.60;;;;;;;;;;4991447;28;20041;-77
2021/07/14 07:38:27;;;;;;;6.57;2.97;;;;;;;;;;4992586;28;20030;-76
2021/07/14 07:40:54;;;;;;;6.53;2.45;;;;;;;;;;4991371;28;20030;-76
2021/07/14 07:43:21;;;;;;;4.43;2.78;;;;;;;;;;4990709;28;20142;-76
2021/07/14 07:45:47;;;;;;;6.00;2.65;;;;;;;;;;4972946;28;20058;-76
2021/07/14 07:48:13;;;;;;;3.90;2.90;;;;;;;;;;4973154;28;20476;-76
2021/07/14 07:50:39;;;;;;;9.18;3.05;;;;;;;;;;4972321;28;20026;-76
2021/07/14 07:53:05;;;;;;;6.72;2.60;;;;;;;;;;4974273;28;20027;-76
2021/07/14 07:55:31;;;;;;;4.57;2.67;;;;;;;;;;4970640;28;20027;-76
2021/07/14 07:57:57;;;;;;;3.78;2.58;;;;;;;;;;4972421;28;20403;-76
2021/07/14 08:00:23;;;;;;;5.22;2.60;;;;;;;;;;4972012;28;20027;-75
2021/07/14 08:02:49;;;;;;;4.55;2.67;;;;;;;;;;4972422;28;20030;-76
2021/07/14 08:05:15;;;;;;;3.38;2.35;;;;;;;;;;4990448;28;20042;-77
2021/07/14 08:07:41;;;;;;;6.30;2.45;;;;;;;;;;4991640;28;20042;-75
2021/07/14 08:10:09;;;;;;;7.15;2.72;;;;;;;;;;4990912;28;20026;-76
2021/07/14 08:12:35;;;;;;;4.63;2.45;;;;;;;;;;4994408;28;20062;-76
2021/07/14 08:15:02;;;;;;;8.90;2.50;;;;;;;;;;4993768;28;20025;-76
2021/07/14 08:17:28;;;;;;;8.45;2.65;;;;;;;;;;4995285;28;20034;-75
2021/07/14 08:19:54;;;;;;;5.38;2.60;;;;;;;;;;4994771;28;20394;-76
2021/07/14 08:22:20;;;;;;;4.53;2.22;;;;;;;;;;4995523;28;20034;-76
2021/07/14 08:24:46;;;;;;;5.80;2.60;;;;;;;;;;4980687;28;20039;-76
2021/07/14 08:27:12;;;;;;;10.63;3.00;;;;;;;;;;4975836;28;20065;-76
2021/07/14 08:29:38;;;;;;;4.50;2.65;;;;;;;;;;4975322;28;20063;-76
2021/07/14 08:32:05;;;;;;;8.90;3.30;;;;;;;;;;4975366;28;20027;-76
2021/07/14 08:34:31;;;;;;;8.38;4.45;;;;;;;;;;4975836;28;20547;-77
2021/07/14 08:37:00;;;;;;;4.82;2.90;;;;;;;;;;4984566;28;20130;-77
2021/07/14 08:39:26;;;;;;;9.07;2.92;;;;;;;;;;4993198;28;20034;-76
2021/07/14 08:41:53;;;;;;;7.95;3.15;;;;;;;;;;4994861;28;20034;-77
2021/07/14 08:44:21;;;;;;;7.90;3.72;;;;;;;;;;4982843;28;20023;-77
2021/07/14 08:46:47;;;;;;;5.03;3.10;;;;;;;;;;4976406;28;20431;-79
2021/07/14 08:49:14;;;;;;;4.78;3.35;;;;;;;;;;4992479;28;20030;-77
2021/07/14 08:51:40;;;;;;;7.03;3.83;;;;;;;;;;4986497;28;20031;-76
2021/07/14 08:54:06;;;;;;;9.18;4.05;;;;;;;;;;4975863;28;20031;-76
2021/07/14 08:56:33;;;;;;;7.90;4.00;;;;;;;;;;4976244;28;20027;-77
2021/07/14 08:59:00;;;;;;;6.22;4.28;;;;;;;;;;4974844;28;20026;-77
2021/07/14 09:01:26;;;;;;;5.35;3.92;;;;;;;;;;4991351;28;20372;-77
2021/07/14 09:03:52;;;;;;;5.47;4.28;;;;;;;;;;4994903;28;20031;-77
2021/07/14 09:06:18;;;;;;;4.78;4.03;;;;;;;;;;4978320;28;20038;-77
2021/07/14 09:08:44;;;;;;;12.82;5.75;;;;;;;;;;4990844;28;20023;-78
2021/07/14 09:11:10;;;;;;;5.50;4.30;;;;;;;;;;4976776;28;20078;-78
2021/07/14 09:13:42;;;;;;;7.53;4.10;;;;;;;;;;4988246;28;20031;-78
2021/07/14 09:16:09;;;;;;;5.50;3.90;;;;;;;;;;4977891;28;20027;-78
2021/07/14 09:18:35;;;;;;;8.50;5.00;;;;;;;;;;4978604;28;20097;-76
2021/07/14 09:21:14;;;;;;;7.15;3.97;;;;;;;;;;4976639;28;20029;-75
2021/07/14 09:23:40;;;;;;;6.47;4.03;;;;;;;;;;4976899;28;20034;-77
2021/07/14 09:26:06;;;;;;;7.78;4.07;;;;;;;;;;4976351;28;20082;-80
2021/07/14 09:28:33;;;;;;;5.38;4.28;;;;;;;;;;4978327;28;20027;-79
2021/07/14 09:31:01;;;;;;;8.25;4.40;;;;;;;;;;4977535;28;20022;-78
2021/07/14 09:33:27;;;;;;;6.20;4.30;;;;;;;;;;4979359;28;20402;-76
2021/07/14 09:35:54;;;;;;;6.75;3.90;;;;;;;;;;4994947;28;20026;-76
2021/07/14 09:38:29;;;;;;;10.23;4.15;;;;;;;;;;4994992;28;20029;-76
2021/07/14 09:40:59;;;;;;;5.93;3.95;;;;;;;;;;4996165;28;20089;-78
2021/07/14 09:43:30;;;;;;;5.10;4.25;;;;;;;;;;4985519;28;20041;-77
2021/07/14 09:45:56;;;;;;;4.45;3.95;;;;;;;;;;4980347;28;20088;-77
2021/07/14 09:48:26;;;;;;;7.57;4.35;;;;;;;;;;4995190;28;20026;-77
2021/07/14 09:50:54;;;;;;;6.88;3.90;;;;;;;;;;4997907;28;20034;-76
2021/07/14 09:53:20;;;;;;;5.55;4.00;;;;;;;;;;4967078;28;20035;-77
2021/07/14 09:55:48;;;;;;;7.10;3.85;;;;;;;;;;4960206;28;20443;-78
2021/07/14 09:58:15;;;;;;;4.47;3.90;;;;;;;;;;4981740;28;20555;-78
2021/07/14 10:00:43;;;;;;;5.80;3.85;;;;;;;;;;4993091;28;20035;-78
2021/07/14 10:03:10;;;;;;;8.68;3.70;;;;;;;;;;4978947;28;20049;-79
2021/07/14 10:05:36;;;;;;;8.60;4.38;;;;;;;;;;4998357;28;20054;-77
2021/07/14 10:08:15;;;;;;;6.32;4.25;;;;;;;;;;4996496;28;20034;-78
2021/07/14 10:10:41;;;;;;;5.38;3.95;;;;;;;;;;4980785;28;20027;-79
2021/07/14 10:13:08;;;;;;;8.52;4.43;;;;;;;;;;4979225;28;20031;-78
2021/07/14 10:15:34;;;;;;;7.05;4.00;;;;;;;;;;4977069;28;20035;-78
2021/07/14 10:18:00;;;;;;;9.27;3.97;;;;;;;;;;4962378;28;20642;-78
2021/07/14 10:20:35;;;;;;;5.57;3.95;;;;;;;;;;4978754;28;20098;-78
2021/07/14 10:23:01;;;;;;;14.90;4.82;;;;;;;;;;4970280;28;20081;-78
2021/07/14 10:25:28;;;;;;;10.63;5.80;;;;;;;;;;4976954;28;20054;-78
2021/07/14 10:27:55;;;;;;;7.85;4.70;;;;;;;;;;4979950;28;20029;-78
2021/07/14 10:30:21;;;;;;;5.88;4.40;;;;;;;;;;4990868;28;20030;-78
2021/07/14 10:32:48;;;;;;;8.82;4.28;;;;;;;;;;4993208;28;20522;-78
2021/07/14 10:35:17;;;;;;;9.15;5.13;;;;;;;;;;4997005;28;20384;-78
2021/07/14 10:37:53;;;;;;;8.32;4.90;;;;;;;;;;4994735;28;20086;-78
2021/07/14 10:40:20;;;;;;;12.32;4.90;;;;;;;;;;4989953;28;20106;-78
2021/07/14 10:42:47;;;;;;;6.28;4.30;;;;;;;;;;4972235;28;20046;-78
2021/07/14 10:45:14;;;;;;;7.05;3.90;;;;;;;;;;4982123;28;20394;-78
2021/07/14 10:47:40;;;;;;;5.43;4.18;;;;;;;;;;4959070;28;20065;-78
2021/07/14 10:50:07;;;;;;;6.30;3.83;;;;;;;;;;4976169;28;20030;-78
2021/07/14 10:52:33;;;;;;;9.30;4.00;;;;;;;;;;4957734;28;20046;-76
2021/07/14 10:54:59;;;;;;;7.15;3.88;;;;;;;;;;4973162;28;20035;-76
2021/07/14 10:57:27;;;;;;;5.32;3.40;;;;;;;;;;4984266;28;20034;-77
2021/07/14 10:59:53;;;;;;;5.63;3.28;;;;;;;;;;4992583;28;20446;-76
2021/07/14 11:02:37;;;;;;;4.65;3.20;;;;;;;;;;4992673;28;20503;-76
2021/07/14 11:05:03;;;;;;;4.40;2.83;;;;;;;;;;4992493;28;20132;-76
2021/07/14 11:07:36;;;;;;;5.38;3.17;;;;;;;;;;4992807;28;20101;-76
2021/07/14 11:10:21;;;;;;;5.68;3.05;;;;;;;;;;4971748;28;20034;-75
2021/07/14 11:12:47;;;;;;;6.25;2.78;;;;;;;;;;4969039;28;20031;-76
2021/07/14 11:15:13;;;;;;;7.63;3.20;;;;;;;;;;4969030;28;20488;-76
2021/07/14 11:17:39;;;;;;;7.05;2.75;;;;;;;;;;4970090;28;20077;-77
2021/07/14 11:20:12;;;;;;;6.82;2.83;;;;;;;;;;4985925;28;20042;-77
2021/07/14 11:22:44;;;;;;;3.40;2.42;;;;;;;;;;4988067;28;20034;-77
2021/07/14 11:25:20;;;;;;;7.88;3.10;;;;;;;;;;4970407;28;20055;-77
2021/07/14 11:27:50;;;;;;;3.22;2.50;;;;;;;;;;4969328;28;20435;-77
2021/07/14 11:30:16;;;;;;;5.45;2.60;;;;;;;;;;4987674;28;20054;-77
2021/07/14 11:32:42;;;;;;;4.97;2.50;;;;;;;;;;4963520;28;20054;-76
2021/07/14 11:35:16;;;;;;;4.68;2.80;;;;;;;;;;4965994;28;20027;-75
2021/07/14 11:37:45;;;;;;;5.68;2.80;;;;;;;;;;4967636;28;20037;-77
2021/07/14 11:40:20;;;;;;;5.28;2.35;;;;;;;;;;4968547;28;20683;-77
2021/07/14 11:42:49;;;;;;;9.35;2.72;;;;;;;;;;4969420;28;20387;-77
2021/07/14 11:45:15;;;;;;;5.18;2.47;;;;;;;;;;4969989;28;20066;-77
2021/07/14 11:47:41;;;;;;;5.32;2.75;;;;;;;;;;4971662;28;20031;-77
2021/07/14 11:50:10;;;;;;;3.15;2.60;;;;;;;;;;4973136;28;20027;-77
2021/07/14 11:52:42;;;;;;;8.25;2.65;;;;;;;;;;4971787;28;20023;-77
2021/07/14 11:55:23;;;;;;;3.75;2.13;;;;;;;;;;4972661;28;20026;-77
2021/07/14 11:57:50;;;;;;;6.88;2.42;;;;;;;;;;4971983;28;20191;-78
2021/07/14 12:00:16;;;;;;;5.50;2.40;;;;;;;;;;4972524;28;20042;-77
2021/07/14 12:02:57;;;;;;;3.20;2.00;;;;;;;;;;4972653;28;20029;-77
2021/07/14 12:05:29;;;;;;;5.78;1.88;;;;;;;;;;4971614;28;20031;-77
2021/07/14 12:08:08;;;;;;;4.20;1.88;;;;;;;;;;4971291;28;20031;-78
2021/07/14 12:10:34;;;;;;;2.88;2.08;;;;;;;;;;4964998;28;20046;-77
2021/07/14 12:13:01;;;;;;;3.83;1.80;;;;;;;;;;4963632;28;20058;-77
2021/07/14 12:15:27;;;;;;;2.60;1.77;;;;;;;;;;4968716;28;20026;-77
2021/07/14 12:17:53;;;;;;;6.68;1.60;;;;;;;;;;4971390;28;20085;-76
2021/07/14 12:20:19;;;;;;;5.28;2.13;;;;;;;;;;4971418;28;20400;-76
2021/07/14 12:22:45;;;;;;;3.90;1.70;;;;;;;;;;4969348;28;20546;-75
2021/07/14 12:25:13;;;;;;;4.15;1.85;;;;;;;;;;4971873;28;20023;-76
2021/07/14 12:27:39;;;;;;;5.55;1.80;;;;;;;;;;4970797;28;20027;-75
2021/07/14 12:30:09;;;;;;;2.55;1.52;;;;;;;;;;4968384;28;20107;-75
2021/07/14 12:32:41;;;;;;;3.05;1.90;;;;;;;;;;4964295;28;20080;-75
2021/07/14 12:35:08;;;;;;;6.13;1.92;;;;;;;;;;4971802;28;20027;-75
2021/07/14 12:44:00;;;;;;;7.10;1.70;;;;;;;;;;4969608;28;20534;-75
2021/07/14 12:46:26;;;;;;;3.35;1.80;;;;;;;;;;4970761;28;20027;-76
2021/07/14 12:49:29;;;;;;;6.18;1.90;;;;;;;;;;4970825;28;20411;-75
2021/07/14 12:58:16;;;;;;;2.35;1.70;;;;;;;;;;4958115;28;20081;-75
2021/07/14 13:00:43;;;;;;;1.67;1.55;;;;;;;;;;4968277;28;20049;-77
2021/07/14 13:03:13;;;;;;;3.00;1.73;;;;;;;;;;4968933;28;20023;-77
2021/07/14 13:05:40;;;;;;;3.33;1.83;;;;;;;;;;4971506;28;20034;-76
2021/07/14 13:08:08;;;;;;;2.15;1.33;;;;;;;;;;4972768;28;20042;-77
2021/07/14 13:10:34;;;;;;;2.95;1.40;;;;;;;;;;4972854;28;20026;-77
2021/07/14 13:13:03;;;;;;;4.63;1.42;;;;;;;;;;4978035;28;20023;-77
2021/07/14 13:21:45;;;;;;;2.42;1.20;;;;;;;;;;4976861;28;20271;-77
2021/07/14 13:24:12;;;;;;;4.13;1.63;;;;;;;;;;4977902;28;20479;-77
2021/07/14 13:26:39;;;;;;;3.90;1.20;;;;;;;;;;4946784;28;20026;-77
2021/07/14 13:35:12;;;;;;;5.55;1.20;;;;;;;;;;4971642;28;20022;-77
2021/07/14 13:37:38;;;;;;;2.47;1.10;;;;;;;;;;4978063;28;20033;-77
2021/07/14 13:40:24;;;;;;;2.03;1.05;;;;;;;;;;4975282;28;20038;-77
2021/07/14 13:42:51;;;;;;;2.40;1.10;;;;;;;;;;4970818;28;20467;-78
2021/07/14 13:45:26;;;;;;;3.90;1.05;;;;;;;;;;4973095;28;20511;-76
2021/07/14 13:47:56;;;;;;;2.45;1.30;;;;;;;;;;4974898;28;20031;-77
2021/07/14 13:50:22;;;;;;;4.18;1.27;;;;;;;;;;4969353;28;20018;-77
2021/07/14 13:52:58;;;;;;;1.58;1.40;;;;;;;;;;4975584;28;20027;-77
2021/07/14 13:55:24;;;;;;;3.38;1.05;;;;;;;;;;4974162;28;20511;-76
2021/07/14 13:57:50;;;;;;;2.30;1.00;;;;;;;;;;4978219;28;20029;-77
2021/07/14 14:00:16;;;;;;;1.42;1.10;;;;;;;;;;4971384;28;20031;-77
2021/07/14 14:02:42;;;;;;;1.85;1.30;;;;;;;;;;4954041;28;20401;-77
2021/07/14 14:05:10;;;;;;;2.33;1.05;;;;;;;;;;4972865;28;20031;-77
2021/07/14 14:07:37;;;;;;;2.20;1.08;;;;;;;;;;4973120;28;20113;-77
2021/07/14 14:10:18;;;;;;;2.95;1.00;;;;;;;;;;4970315;28;20078;-77
2021/07/14 14:12:45;;;;;;;1.55;1.05;;;;;;;;;;4970178;28;20019;-77
2021/07/14 14:15:13;;;;;;;4.47;1.45;;;;;;;;;;4972515;28;20105;-77
2021/07/14 14:17:39;;;;;;;2.60;1.17;;;;;;;;;;4973268;28;20034;-77
2021/07/14 14:20:13;;;;;;;3.25;1.00;;;;;;;;;;4970960;28;20089;-77
2021/07/14 14:22:39;;;;;;;2.45;1.15;;;;;;;;;;4972613;28;20086;-77
2021/07/14 14:25:21;;;;;;;3.50;0.90;;;;;;;;;;4973710;28;20026;-77
2021/07/14 14:30:43;;;;;;;2.00;1.02;;;;;;;;;;4966112;28;20035;-77
2021/07/14 14:33:09;;;;;;;2.38;1.17;;;;;;;;;;4974011;28;20403;-77
2021/07/14 14:35:37;;;;;;;3.20;0.90;;;;;;;;;;4974981;28;20015;-78
2021/07/14 14:38:08;;;;;;;1.90;1.00;;;;;;;;;;4992056;28;20512;-77
2021/07/14 14:40:35;;;;;;;2.10;0.90;;;;;;;;;;4995108;28;20022;-78
2021/07/14 14:43:02;;;;;;;2.83;1.20;;;;;;;;;;4994342;28;20018;-77
2021/07/14 14:45:28;;;;;;;5.40;1.10;;;;;;;;;;4976109;28;20368;-77
2021/07/14 14:47:54;;;;;;;3.85;1.10;;;;;;;;;;4975761;28;20154;-78
2021/07/14 14:50:21;;;;;;;2.47;1.02;;;;;;;;;;4972793;28;20034;-76
2021/07/14 14:52:47;;;;;;;3.67;1.00;;;;;;;;;;4973383;28;20054;-76
2021/07/14 14:55:14;;;;;;;3.47;0.82;;;;;;;;;;4990891;28;20054;-76
2021/07/14 14:57:40;;;;;;;4.38;1.30;;;;;;;;;;4973822;28;20038;-76
2021/07/14 15:00:07;;;;;;;3.65;1.33;;;;;;;;;;4972805;28;20538;-76
2021/07/14 15:02:33;;;;;;;3.58;1.10;;;;;;;;;;4983532;23;20043;-79
2021/07/14 15:04:59;;;;;;;2.92;1.17;;;;;;;;;;4957224;28;20126;-79
2021/07/14 15:07:25;;;;;;;2.08;0.90;;;;;;;;;;4959871;28;20380;-81
2021/07/14 15:09:51;;;;;;;1.40;0.80;;;;;;;;;;4980529;28;20031;-80
2021/07/14 15:12:18;;;;;;;2.90;0.90;;;;;;;;;;4984425;28;20097;-80
2021/07/14 15:14:45;;;;;;;0.90;0.80;;;;;;;;;;4960122;28;20086;-80
2021/07/14 15:17:11;;;;;;;1.67;0.70;;;;;;;;;;4981183;28;20403;-80